sensor_id;sensor_type;location;lat;lon;timestamp;pressure;altitude;pressure_sealevel;temperature;humidity
6136;BME280;24008;42.664;23.372;2022-11-15T00:01:07;95289.81;;;2.68;100.00
6136;BME280;24008;42.664;23.372;2022-11-15T00:03:35;95181.44;;;1.85;100.00
6136;BME280;24008;42.664;23.372;2022-11-15T00:06:04;94799.66;;;-0.47;100.00
6136;BME280;24008;42.664;23.372;2022-11-15T00:08:31;95348.63;;;2.85;100.00
6136;BME280;24008;42.664;23.372;2022-11-15T00:10:59;95346.84;;;2.87;100.00
6136;BME280;24008;42.664;23.372;2022-11-15T00:13:27;95350.28;;;2.86;100.00
6136;BME280;24008;42.664;23.372;2022-11-15T00:15:56;95342.03;;;2.83;100.00
6136;BME280;24008;42.664;23.372;2022-11-15T00:18:23;95341.28;;;2.81;100.00
6136;BME280;24008;42.664;23.372;2022-11-15T00:20:50;95338.13;;;2.77;100.00
6136;BME280;24008;42.664;23.372;2022-11-15T00:23:18;95262.94;;;2.18;100.00
6136;BME280;24008;42.664;23.372;2022-11-15T00:25:45;95334.13;;;2.73;100.00
6136;BME280;24008;42.664;23.372;2022-11-15T00:28:12;95198.00;;;1.90;100.00
6136;BME280;24008;42.664;23.372;2022-11-15T00:30:38;95333.97;;;2.76;100.00
6136;BME280;24008;42.664;23.372;2022-11-15T00:33:06;95329.00;;;2.75;100.00
6136;BME280;24008;42.664;23.372;2022-11-15T00:35:33;95276.25;;;2.37;100.00
6136;BME280;24008;42.664;23.372;2022-11-15T00:38:01;95228.66;;;1.98;100.00
6136;BME280;24008;42.664;23.372;2022-11-15T00:40:30;95277.66;;;2.43;100.00
6136;BME280;24008;42.664;23.372;2022-11-15T00:42:57;95322.47;;;2.71;100.00
6136;BME280;24008;42.664;23.372;2022-11-15T00:45:24;95342.66;;;2.71;100.00
6136;BME280;24008;42.664;23.372;2022-11-15T00:47:51;95321.50;;;2.73;100.00
6136;BME280;24008;42.664;23.372;2022-11-15T00:50:18;95318.97;;;2.73;100.00
6136;BME280;24008;42.664;23.372;2022-11-15T00:52:45;95311.16;;;2.78;100.00
6136;BME280;24008;42.664;23.372;2022-11-15T00:55:14;95236.69;;;2.22;100.00
6136;BME280;24008;42.664;23.372;2022-11-15T00:57:43;95316.38;;;2.75;100.00
6136;BME280;24008;42.664;23.372;2022-11-15T01:00:10;95315.63;;;2.73;100.00
6136;BME280;24008;42.664;23.372;2022-11-15T01:02:37;95260.16;;;2.40;100.00
6136;BME280;24008;42.664;23.372;2022-11-15T01:05:05;95207.44;;;2.02;100.00
6136;BME280;24008;42.664;23.372;2022-11-15T01:07:32;95186.69;;;1.97;100.00
6136;BME280;24008;42.664;23.372;2022-11-15T01:09:59;95307.25;;;2.72;100.00
6136;BME280;24008;42.664;23.372;2022-11-15T01:12:26;95169.66;;;1.85;100.00
6136;BME280;24008;42.664;23.372;2022-11-15T01:14:54;95310.81;;;2.68;100.00
6136;BME280;24008;42.664;23.372;2022-11-15T01:17:21;95307.41;;;2.69;100.00
6136;BME280;24008;42.664;23.372;2022-11-15T01:19:48;95300.72;;;2.68;100.00
6136;BME280;24008;42.664;23.372;2022-11-15T01:22:15;95309.19;;;2.67;100.00
6136;BME280;24008;42.664;23.372;2022-11-15T01:24:41;95305.03;;;2.66;100.00
6136;BME280;24008;42.664;23.372;2022-11-15T01:27:08;95250.84;;;2.25;100.00
6136;BME280;24008;42.664;23.372;2022-11-15T01:29:35;95316.19;;;2.62;100.00
6136;BME280;24008;42.664;23.372;2022-11-15T01:32:03;95302.84;;;2.60;100.00
6136;BME280;24008;42.664;23.372;2022-11-15T01:34:30;95303.56;;;2.62;100.00
6136;BME280;24008;42.664;23.372;2022-11-15T01:36:57;95170.88;;;1.78;100.00
6136;BME280;24008;42.664;23.372;2022-11-15T01:39:24;95188.66;;;1.92;100.00
6136;BME280;24008;42.664;23.372;2022-11-15T01:41:51;95299.28;;;2.64;100.00
6136;BME280;24008;42.664;23.372;2022-11-15T01:44:41;95302.69;;;2.63;100.00
6136;BME280;24008;42.664;23.372;2022-11-15T01:47:12;95298.53;;;2.62;100.00
6136;BME280;24008;42.664;23.372;2022-11-15T01:49:45;95185.69;;;1.84;100.00
6136;BME280;24008;42.664;23.372;2022-11-15T01:52:18;95305.44;;;2.59;100.00
6136;BME280;24008;42.664;23.372;2022-11-15T01:54:46;95299.72;;;2.55;100.00
6136;BME280;24008;42.664;23.372;2022-11-15T01:57:13;95293.78;;;2.56;100.00
6136;BME280;24008;42.664;23.372;2022-11-15T01:59:42;95297.78;;;2.60;100.00
6136;BME280;24008;42.664;23.372;2022-11-15T02:02:11;95296.97;;;2.60;100.00
6136;BME280;24008;42.664;23.372;2022-11-15T02:04:41;95251.00;;;2.22;100.00
6136;BME280;24008;42.664;23.372;2022-11-15T02:07:09;95119.28;;;1.35;100.00
6136;BME280;24008;42.664;23.372;2022-11-15T02:09:37;95300.19;;;2.46;100.00
6136;BME280;24008;42.664;23.372;2022-11-15T02:12:05;95159.44;;;1.55;100.00
6136;BME280;24008;42.664;23.372;2022-11-15T02:14:34;95275.47;;;2.20;100.00
6136;BME280;24008;42.664;23.372;2022-11-15T02:17:13;95228.66;;;1.98;100.00
6136;BME280;24008;42.664;23.372;2022-11-15T02:20:18;95141.69;;;1.41;100.00
6136;BME280;24008;42.664;23.372;2022-11-15T02:25:57;95292.97;;;2.23;100.00
6136;BME280;24008;42.664;23.372;2022-11-15T02:28:50;95201.28;;;1.58;100.00
6136;BME280;24008;42.664;23.372;2022-11-15T02:31:28;95296.84;;;2.12;100.00
6136;BME280;24008;42.664;23.372;2022-11-15T02:34:02;95294.47;;;2.09;100.00
6136;BME280;24008;42.664;23.372;2022-11-15T02:36:38;95296.94;;;2.11;100.00
6136;BME280;24008;42.664;23.372;2022-11-15T02:39:10;95244.53;;;1.83;100.00
6136;BME280;24008;42.664;23.372;2022-11-15T02:41:54;95236.25;;;1.81;100.00
6136;BME280;24008;42.664;23.372;2022-11-15T02:44:24;95279.69;;;2.19;100.00
6136;BME280;24008;42.664;23.372;2022-11-15T02:46:58;95279.63;;;2.21;100.00
6136;BME280;24008;42.664;23.372;2022-11-15T02:49:46;95236.25;;;1.81;100.00
6136;BME280;24008;42.664;23.372;2022-11-15T02:52:15;95291.28;;;2.06;100.00
6136;BME280;24008;42.664;23.372;2022-11-15T02:54:42;95285.59;;;2.02;100.00
6136;BME280;24008;42.664;23.372;2022-11-15T02:57:13;95298.44;;;1.98;100.00
6136;BME280;24008;42.664;23.372;2022-11-15T02:59:56;95246.13;;;1.68;100.00
6136;BME280;24008;42.664;23.372;2022-11-15T03:02:47;95292.41;;;2.00;100.00
6136;BME280;24008;42.664;23.372;2022-11-15T03:05:28;95294.34;;;1.95;100.00
6136;BME280;24008;42.664;23.372;2022-11-15T03:08:04;95172.13;;;1.19;100.00
6136;BME280;24008;42.664;23.372;2022-11-15T03:10:42;95076.31;;;0.53;100.00
6136;BME280;24008;42.664;23.372;2022-11-15T03:13:17;95290.22;;;1.77;100.00
6136;BME280;24008;42.664;23.372;2022-11-15T03:15:52;95292.94;;;1.72;100.00
6136;BME280;24008;42.664;23.372;2022-11-15T03:18:24;95286.66;;;1.64;100.00
6136;BME280;24008;42.664;23.372;2022-11-15T03:20:55;95235.78;;;1.21;100.00
6136;BME280;24008;42.664;23.372;2022-11-15T03:23:27;95298.25;;;1.49;100.00
6136;BME280;24008;42.664;23.372;2022-11-15T03:25:56;95191.13;;;0.90;100.00
6136;BME280;24008;42.664;23.372;2022-11-15T03:28:28;95286.22;;;1.56;100.00
6136;BME280;24008;42.664;23.372;2022-11-15T03:30:59;95174.94;;;0.96;100.00
6136;BME280;24008;42.664;23.372;2022-11-15T03:33:50;95279.22;;;1.61;100.00
6136;BME280;24008;42.664;23.372;2022-11-15T03:36:21;95210.59;;;1.21;100.00
6136;BME280;24008;42.664;23.372;2022-11-15T03:38:51;95041.88;;;0.19;100.00
6136;BME280;24008;42.664;23.372;2022-11-15T03:41:23;95202.03;;;1.25;100.00
6136;BME280;24008;42.664;23.372;2022-11-15T03:43:55;95175.22;;;1.07;100.00
6136;BME280;24008;42.664;23.372;2022-11-15T03:46:26;95221.44;;;1.40;100.00
6136;BME280;24008;42.664;23.372;2022-11-15T03:49:00;95263.38;;;1.76;100.00
6136;BME280;24008;42.664;23.372;2022-11-15T03:51:30;95197.91;;;1.41;100.00
6136;BME280;24008;42.664;23.372;2022-11-15T03:53:57;95132.72;;;1.01;100.00
6136;BME280;24008;42.664;23.372;2022-11-15T03:56:24;95263.16;;;1.80;100.00
6136;BME280;24008;42.664;23.372;2022-11-15T03:58:51;95240.28;;;1.68;100.00
6136;BME280;24008;42.664;23.372;2022-11-15T04:01:18;95253.66;;;1.86;100.00
6136;BME280;24008;42.664;23.372;2022-11-15T04:03:44;95185.00;;;0.96;100.00
6136;BME280;24008;42.664;23.372;2022-11-15T04:06:12;95227.47;;;1.55;100.00
6136;BME280;24008;42.664;23.372;2022-11-15T04:08:39;95253.66;;;1.86;100.00
6136;BME280;24008;42.664;23.372;2022-11-15T04:11:06;95054.28;;;0.58;100.00
6136;BME280;24008;42.664;23.372;2022-11-15T04:13:33;95250.25;;;1.87;100.00
6136;BME280;24008;42.664;23.372;2022-11-15T04:16:00;95251.94;;;1.86;100.00
6136;BME280;24008;42.664;23.372;2022-11-15T04:18:27;95184.41;;;1.42;100.00
6136;BME280;24008;42.664;23.372;2022-11-15T04:20:53;95253.72;;;1.84;100.00
6136;BME280;24008;42.664;23.372;2022-11-15T04:23:39;95246.25;;;1.83;100.00
6136;BME280;24008;42.664;23.372;2022-11-15T04:26:23;95243.22;;;1.76;100.00
6136;BME280;24008;42.664;23.372;2022-11-15T04:28:50;95135.09;;;1.04;100.00
6136;BME280;24008;42.664;23.372;2022-11-15T04:31:34;95237.00;;;1.66;100.00
6136;BME280;24008;42.664;23.372;2022-11-15T04:34:01;95244.50;;;1.67;100.00
6136;BME280;24008;42.664;23.372;2022-11-15T04:36:28;94743.06;;;-1.42;100.00
6136;BME280;24008;42.664;23.372;2022-11-15T04:39:14;94981.44;;;0.04;100.00
6136;BME280;24008;42.664;23.372;2022-11-15T04:41:40;94999.00;;;0.22;100.00
6136;BME280;24008;42.664;23.372;2022-11-15T04:44:07;95247.66;;;1.88;100.00
6136;BME280;24008;42.664;23.372;2022-11-15T04:46:34;95250.03;;;1.91;100.00
6136;BME280;24008;42.664;23.372;2022-11-15T04:49:01;95247.34;;;1.94;100.00
6136;BME280;24008;42.664;23.372;2022-11-15T04:51:28;95138.88;;;1.30;100.00
6136;BME280;24008;42.664;23.372;2022-11-15T04:53:55;95246.22;;;2.00;100.00
6136;BME280;24008;42.664;23.372;2022-11-15T04:56:23;95258.91;;;1.98;100.00
6136;BME280;24008;42.664;23.372;2022-11-15T04:58:50;95248.81;;;1.98;100.00
6136;BME280;24008;42.664;23.372;2022-11-15T05:01:27;95162.63;;;1.41;100.00
6136;BME280;24008;42.664;23.372;2022-11-15T05:03:53;94921.13;;;-0.31;100.00
6136;BME280;24008;42.664;23.372;2022-11-15T05:06:37;95098.72;;;1.09;100.00
6136;BME280;24008;42.664;23.372;2022-11-15T05:09:04;95251.47;;;2.12;100.00
6136;BME280;24008;42.664;23.372;2022-11-15T05:11:32;95246.28;;;2.15;100.00
6136;BME280;24008;42.664;23.372;2022-11-15T05:13:59;95092.06;;;1.26;100.00
6136;BME280;24008;42.664;23.372;2022-11-15T05:16:26;95252.47;;;2.26;100.00
6136;BME280;24008;42.664;23.372;2022-11-15T05:18:54;95250.53;;;2.31;100.00
6136;BME280;24008;42.664;23.372;2022-11-15T05:21:20;95175.44;;;1.87;100.00
6136;BME280;24008;42.664;23.372;2022-11-15T05:23:47;95133.09;;;1.61;100.00
6136;BME280;24008;42.664;23.372;2022-11-15T05:26:16;95109.59;;;1.44;100.00
6136;BME280;24008;42.664;23.372;2022-11-15T05:28:44;95259.34;;;2.39;100.00
6136;BME280;24008;42.664;23.372;2022-11-15T05:31:12;95202.81;;;2.10;100.00
6136;BME280;24008;42.664;23.372;2022-11-15T05:33:41;95241.63;;;2.41;100.00
6136;BME280;24008;42.664;23.372;2022-11-15T05:36:17;95247.78;;;2.35;100.00
6136;BME280;24008;42.664;23.372;2022-11-15T05:38:45;95094.38;;;1.46;100.00
6136;BME280;24008;42.664;23.372;2022-11-15T05:41:12;95158.91;;;1.81;100.00
6136;BME280;24008;42.664;23.372;2022-11-15T05:43:41;95250.47;;;2.48;100.00
6136;BME280;24008;42.664;23.372;2022-11-15T05:46:09;95066.25;;;1.38;100.00
6136;BME280;24008;42.664;23.372;2022-11-15T05:48:37;95207.72;;;2.13;100.00
6136;BME280;24008;42.664;23.372;2022-11-15T05:51:07;95207.72;;;2.13;100.00
6136;BME280;24008;42.664;23.372;2022-11-15T05:53:35;95241.63;;;2.41;100.00
6136;BME280;24008;42.664;23.372;2022-11-15T05:56:03;94771.63;;;-0.55;100.00
6136;BME280;24008;42.664;23.372;2022-11-15T05:58:31;95290.38;;;2.57;100.00
6136;BME280;24008;42.664;23.372;2022-11-15T06:00:58;95170.19;;;2.07;100.00
6136;BME280;24008;42.664;23.372;2022-11-15T06:03:27;95221.09;;;2.47;100.00
6136;BME280;24008;42.664;23.372;2022-11-15T06:05:55;94804.19;;;-0.02;100.00
6136;BME280;24008;42.664;23.372;2022-11-15T06:08:22;94767.09;;;-0.14;100.00
6136;BME280;24008;42.664;23.372;2022-11-15T06:10:49;95097.91;;;1.92;100.00
6136;BME280;24008;42.664;23.372;2022-11-15T06:13:16;95230.22;;;2.81;100.00
6136;BME280;24008;42.664;23.372;2022-11-15T06:15:43;95253.53;;;3.02;100.00
6136;BME280;24008;42.664;23.372;2022-11-15T06:18:10;95240.16;;;3.00;100.00
6136;BME280;24008;42.664;23.372;2022-11-15T06:20:39;95158.41;;;2.55;100.00
6136;BME280;24008;42.664;23.372;2022-11-15T06:23:06;95257.06;;;3.29;100.00
6136;BME280;24008;42.664;23.372;2022-11-15T06:25:32;94965.78;;;1.49;100.00
6136;BME280;24008;42.664;23.372;2022-11-15T06:28:03;95255.03;;;3.36;100.00
6136;BME280;24008;42.664;23.372;2022-11-15T06:30:30;94987.16;;;1.58;100.00
6136;BME280;24008;42.664;23.372;2022-11-15T06:33:04;95250.81;;;3.50;100.00
6136;BME280;24008;42.664;23.372;2022-11-15T06:35:33;95220.06;;;3.28;100.00
6136;BME280;24008;42.664;23.372;2022-11-15T06:38:06;95254.25;;;3.49;100.00
6136;BME280;24008;42.664;23.372;2022-11-15T06:40:34;95243.16;;;3.52;100.00
6136;BME280;24008;42.664;23.372;2022-11-15T06:43:01;95244.63;;;3.56;100.00
6136;BME280;24008;42.664;23.372;2022-11-15T06:45:29;94872.59;;;1.33;100.00
6136;BME280;24008;42.664;23.372;2022-11-15T06:47:56;95199.69;;;3.31;100.00
6136;BME280;24008;42.664;23.372;2022-11-15T06:50:23;95241.84;;;3.75;100.00
6136;BME280;24008;42.664;23.372;2022-11-15T06:52:50;94577.31;;;-0.36;100.00
6136;BME280;24008;42.664;23.372;2022-11-15T06:55:18;95192.44;;;3.55;100.00
6136;BME280;24008;42.664;23.372;2022-11-15T06:57:49;95207.59;;;3.55;100.00
6136;BME280;24008;42.664;23.372;2022-11-15T07:00:18;95025.00;;;2.35;100.00
6136;BME280;24008;42.664;23.372;2022-11-15T07:02:46;95245.25;;;4.04;100.00
6136;BME280;24008;42.664;23.372;2022-11-15T07:05:13;94927.63;;;2.02;100.00
6136;BME280;24008;42.664;23.372;2022-11-15T07:07:41;95241.53;;;3.95;100.00
6136;BME280;24008;42.664;23.372;2022-11-15T07:10:08;95156.94;;;3.42;100.00
6136;BME280;24008;42.664;23.372;2022-11-15T07:12:36;94918.69;;;1.97;100.00
6136;BME280;24008;42.664;23.372;2022-11-15T07:15:04;95244.44;;;4.03;100.00
6136;BME280;24008;42.664;23.372;2022-11-15T07:17:31;95148.25;;;3.62;100.00
6136;BME280;24008;42.664;23.372;2022-11-15T07:19:58;95233.06;;;4.10;100.00
6136;BME280;24008;42.664;23.372;2022-11-15T07:22:25;95232.25;;;4.10;100.00
6136;BME280;24008;42.664;23.372;2022-11-15T07:24:52;95221.94;;;3.98;100.00
6136;BME280;24008;42.664;23.372;2022-11-15T07:27:19;95197.09;;;4.05;100.00
6136;BME280;24008;42.664;23.372;2022-11-15T07:29:47;95084.31;;;3.46;100.00
6136;BME280;24008;42.664;23.372;2022-11-15T07:32:14;95231.97;;;4.43;100.00
6136;BME280;24008;42.664;23.372;2022-11-15T07:34:40;95149.31;;;3.72;100.00
6136;BME280;24008;42.664;23.372;2022-11-15T07:37:07;95174.50;;;4.16;100.00
6136;BME280;24008;42.664;23.372;2022-11-15T07:39:34;95231.66;;;4.61;100.00
6136;BME280;24008;42.664;23.372;2022-11-15T07:42:01;95147.16;;;4.09;100.00
6136;BME280;24008;42.664;23.372;2022-11-15T07:44:46;95237.94;;;4.56;100.00
6136;BME280;24008;42.664;23.372;2022-11-15T07:47:13;95202.50;;;4.42;100.00
6136;BME280;24008;42.664;23.372;2022-11-15T07:49:40;95179.28;;;4.35;100.00
6136;BME280;24008;42.664;23.372;2022-11-15T07:52:07;95224.44;;;4.69;100.00
6136;BME280;24008;42.664;23.372;2022-11-15T07:54:34;95227.41;;;4.76;100.00
6136;BME280;24008;42.664;23.372;2022-11-15T07:57:00;95225.41;;;4.81;100.00
6136;BME280;24008;42.664;23.372;2022-11-15T07:59:27;95231.72;;;4.88;100.00
6136;BME280;24008;42.664;23.372;2022-11-15T08:01:55;95230.19;;;4.86;100.00
6136;BME280;24008;42.664;23.372;2022-11-15T08:04:22;95230.81;;;4.89;100.00
6136;BME280;24008;42.664;23.372;2022-11-15T08:06:49;95228.81;;;4.94;100.00
6136;BME280;24008;42.664;23.372;2022-11-15T08:09:16;94698.47;;;1.69;100.00
6136;BME280;24008;42.664;23.372;2022-11-15T08:11:43;95166.75;;;4.60;100.00
6136;BME280;24008;42.664;23.372;2022-11-15T08:14:10;95228.06;;;5.06;100.00
6136;BME280;24008;42.664;23.372;2022-11-15T08:16:36;95192.91;;;4.88;100.00
6136;BME280;24008;42.664;23.372;2022-11-15T08:19:05;95227.31;;;5.19;100.00
6136;BME280;24008;42.664;23.372;2022-11-15T08:21:31;95001.50;;;3.78;100.00
6136;BME280;24008;42.664;23.372;2022-11-15T08:23:58;95227.53;;;5.28;100.00
6136;BME280;24008;42.664;23.372;2022-11-15T08:26:25;95217.81;;;5.35;100.00
6136;BME280;24008;42.664;23.372;2022-11-15T08:28:54;95214.91;;;5.41;100.00
6136;BME280;24008;42.664;23.372;2022-11-15T08:31:21;95214.81;;;5.42;99.40
6136;BME280;24008;42.664;23.372;2022-11-15T08:33:47;95216.41;;;5.43;99.05
6136;BME280;24008;42.664;23.372;2022-11-15T08:36:16;95122.19;;;4.85;98.79
6136;BME280;24008;42.664;23.372;2022-11-15T08:38:44;95102.09;;;4.69;99.02
6136;BME280;24008;42.664;23.372;2022-11-15T08:41:13;95217.38;;;5.55;98.68
6136;BME280;24008;42.664;23.372;2022-11-15T08:43:43;95209.75;;;5.55;98.67
6136;BME280;24008;42.664;23.372;2022-11-15T08:46:11;95206.81;;;5.61;98.42
6136;BME280;24008;42.664;23.372;2022-11-15T08:48:39;95212.41;;;5.66;98.01
6136;BME280;24008;42.664;23.372;2022-11-15T08:51:06;95208.44;;;5.62;96.11
6136;BME280;24008;42.664;23.372;2022-11-15T08:53:35;95201.84;;;5.60;96.21
6136;BME280;24008;42.664;23.372;2022-11-15T08:56:02;95199.41;;;5.58;96.36
6136;BME280;24008;42.664;23.372;2022-11-15T08:58:29;95151.09;;;5.34;96.45
6136;BME280;24008;42.664;23.372;2022-11-15T09:00:56;95149.09;;;5.39;95.88
6136;BME280;24008;42.664;23.372;2022-11-15T09:03:22;95193.44;;;5.72;96.42
6136;BME280;24008;42.664;23.372;2022-11-15T09:05:54;95139.94;;;5.37;95.68
6136;BME280;24008;42.664;23.372;2022-11-15T09:08:21;95183.00;;;5.64;95.98
6136;BME280;24008;42.664;23.372;2022-11-15T09:10:49;95184.81;;;5.74;96.38
6136;BME280;24008;42.664;23.372;2022-11-15T09:13:16;95158.03;;;5.70;96.82
6136;BME280;24008;42.664;23.372;2022-11-15T09:15:43;95086.34;;;5.43;96.03
6136;BME280;24008;42.664;23.372;2022-11-15T09:18:09;95167.81;;;6.02;95.26
6136;BME280;24008;42.664;23.372;2022-11-15T09:20:36;95123.53;;;5.80;95.37
6136;BME280;24008;42.664;23.372;2022-11-15T09:23:04;95168.09;;;6.23;94.44
6136;BME280;24008;42.664;23.372;2022-11-15T09:25:31;95143.81;;;6.19;93.55
6136;BME280;24008;42.664;23.372;2022-11-15T09:28:00;95159.91;;;6.43;92.75
6136;BME280;24008;42.664;23.372;2022-11-15T09:30:26;94998.38;;;5.56;92.38
6136;BME280;24008;42.664;23.372;2022-11-15T09:32:53;95156.44;;;6.57;90.69
6136;BME280;24008;42.664;23.372;2022-11-15T09:35:20;95063.25;;;6.09;90.25
6136;BME280;24008;42.664;23.372;2022-11-15T09:37:48;95147.03;;;6.70;90.34
6136;BME280;24008;42.664;23.372;2022-11-15T09:40:15;95130.69;;;6.74;88.89
6136;BME280;24008;42.664;23.372;2022-11-15T09:42:55;94989.59;;;5.86;87.58
6136;BME280;24008;42.664;23.372;2022-11-15T09:45:34;95131.19;;;6.90;88.05
6136;BME280;24008;42.664;23.372;2022-11-15T09:48:22;95147.25;;;7.14;87.53
6136;BME280;24008;42.664;23.372;2022-11-15T09:50:51;95131.13;;;7.27;85.92
6136;BME280;24008;42.664;23.372;2022-11-15T09:53:27;95124.59;;;7.46;84.73
6136;BME280;24008;42.664;23.372;2022-11-15T09:55:59;95122.41;;;7.64;84.04
6136;BME280;24008;42.664;23.372;2022-11-15T09:58:32;94943.44;;;6.87;82.64
6136;BME280;24008;42.664;23.372;2022-11-15T10:01:07;95069.25;;;7.94;81.75
6136;BME280;24008;42.664;23.372;2022-11-15T10:03:38;95018.09;;;7.97;80.19
6136;BME280;24008;42.664;23.372;2022-11-15T10:06:10;95100.81;;;8.91;78.54
6136;BME280;24008;42.664;23.372;2022-11-15T10:08:49;95107.19;;;9.17;76.83
6136;BME280;24008;42.664;23.372;2022-11-15T10:11:20;94673.34;;;6.75;74.59
6136;BME280;24008;42.664;23.372;2022-11-15T10:13:49;95016.91;;;9.09;73.69
6136;BME280;24008;42.664;23.372;2022-11-15T10:16:43;95080.56;;;9.52;72.04
6136;BME280;24008;42.664;23.372;2022-11-15T10:19:21;95048.72;;;9.25;71.99
6136;BME280;24008;42.664;23.372;2022-11-15T10:21:59;94866.06;;;8.00;71.86
6136;BME280;24008;42.664;23.372;2022-11-15T10:24:34;94930.97;;;8.05;73.37
6136;BME280;24008;42.664;23.372;2022-11-15T10:27:08;95064.72;;;8.75;75.07
6136;BME280;24008;42.664;23.372;2022-11-15T10:29:42;95077.47;;;8.63;75.97
6136;BME280;24008;42.664;23.372;2022-11-15T10:32:11;95070.47;;;8.56;76.28
6136;BME280;24008;42.664;23.372;2022-11-15T10:34:38;95071.16;;;8.47;77.09
6136;BME280;24008;42.664;23.372;2022-11-15T10:37:05;95047.47;;;8.13;77.34
6136;BME280;24008;42.664;23.372;2022-11-15T10:39:32;95031.25;;;8.14;78.92
6136;BME280;24008;42.664;23.372;2022-11-15T10:42:15;95023.19;;;8.09;78.50
6136;BME280;24008;42.664;23.372;2022-11-15T10:44:44;95045.69;;;8.24;79.65
6136;BME280;24008;42.664;23.372;2022-11-15T10:47:27;95044.47;;;8.19;80.20
6136;BME280;24008;42.664;23.372;2022-11-15T10:50:02;95046.50;;;8.25;80.73
6136;BME280;24008;42.664;23.372;2022-11-15T10:52:30;95033.22;;;8.33;80.15
6136;BME280;24008;42.664;23.372;2022-11-15T10:55:02;95032.84;;;8.37;80.29
6136;BME280;24008;42.664;23.372;2022-11-15T10:57:32;95034.00;;;8.44;79.93
6136;BME280;24008;42.664;23.372;2022-11-15T11:00:02;95009.25;;;8.24;79.32
6136;BME280;24008;42.664;23.372;2022-11-15T11:02:34;95023.63;;;8.14;79.97
6136;BME280;24008;42.664;23.372;2022-11-15T11:05:04;95016.91;;;8.13;81.33
6136;BME280;24008;42.664;23.372;2022-11-15T11:07:33;94999.31;;;8.10;82.10
6136;BME280;24008;42.664;23.372;2022-11-15T11:10:02;94960.03;;;7.91;81.06
6136;BME280;24008;42.664;23.372;2022-11-15T11:12:31;94971.13;;;8.02;80.96
6136;BME280;24008;42.664;23.372;2022-11-15T11:14:59;95007.03;;;8.30;81.32
6136;BME280;24008;42.664;23.372;2022-11-15T11:17:42;94998.16;;;8.14;81.65
6136;BME280;24008;42.664;23.372;2022-11-15T11:20:19;94992.63;;;7.97;81.80
6136;BME280;24008;42.664;23.372;2022-11-15T11:22:57;94984.09;;;7.87;82.55
6136;BME280;24008;42.664;23.372;2022-11-15T11:25:33;94991.97;;;7.95;82.73
6136;BME280;24008;42.664;23.372;2022-11-15T11:28:20;94906.25;;;7.19;83.27
6136;BME280;24008;42.664;23.372;2022-11-15T11:30:58;94975.78;;;7.74;84.47
6136;BME280;24008;42.664;23.372;2022-11-15T11:33:31;94968.50;;;7.81;84.53
6136;BME280;24008;42.664;23.372;2022-11-15T11:36:09;94963.41;;;7.81;84.12
6136;BME280;24008;42.664;23.372;2022-11-15T11:38:51;94958.44;;;7.79;84.79
6136;BME280;24008;42.664;23.372;2022-11-15T11:41:40;94951.28;;;7.84;84.88
6136;BME280;24008;42.664;23.372;2022-11-15T11:44:18;94761.88;;;6.80;84.70
6136;BME280;24008;42.664;23.372;2022-11-15T11:46:55;94939.66;;;8.03;84.63
6136;BME280;24008;42.664;23.372;2022-11-15T11:49:28;94920.47;;;7.87;83.38
6136;BME280;24008;42.664;23.372;2022-11-15T11:52:02;94934.81;;;7.88;83.77
6136;BME280;24008;42.664;23.372;2022-11-15T11:54:38;94916.34;;;7.75;84.30
6136;BME280;24008;42.664;23.372;2022-11-15T11:57:15;94934.63;;;7.80;83.93
6136;BME280;24008;42.664;23.372;2022-11-15T11:59:50;94933.91;;;7.78;84.91
6136;BME280;24008;42.664;23.372;2022-11-15T12:02:24;94918.53;;;7.80;84.98
6136;BME280;24008;42.664;23.372;2022-11-15T12:05:01;94918.19;;;7.84;85.29
6136;BME280;24008;42.664;23.372;2022-11-15T12:07:32;94889.28;;;7.74;85.23
6136;BME280;24008;42.664;23.372;2022-11-15T12:10:03;94884.06;;;7.76;84.68
6136;BME280;24008;42.664;23.372;2022-11-15T12:12:36;94871.84;;;7.70;85.47
6136;BME280;24008;42.664;23.372;2022-11-15T12:15:14;94894.97;;;7.67;84.58
6136;BME280;24008;42.664;23.372;2022-11-15T12:17:43;94896.00;;;7.64;85.60
6136;BME280;24008;42.664;23.372;2022-11-15T12:20:18;94872.25;;;7.43;86.57
6136;BME280;24008;42.664;23.372;2022-11-15T12:22:52;94869.22;;;7.49;87.18
6136;BME280;24008;42.664;23.372;2022-11-15T12:25:23;94864.00;;;7.62;87.26
6136;BME280;24008;42.664;23.372;2022-11-15T12:27:54;94892.94;;;7.92;86.92
6136;BME280;24008;42.664;23.372;2022-11-15T12:30:25;94879.38;;;8.03;85.21
6136;BME280;24008;42.664;23.372;2022-11-15T12:32:54;94872.84;;;8.10;85.17
6136;BME280;24008;42.664;23.372;2022-11-15T12:35:39;94878.28;;;8.17;84.35
6136;BME280;24008;42.664;23.372;2022-11-15T12:38:09;94852.63;;;8.09;83.64
6136;BME280;24008;42.664;23.372;2022-11-15T12:40:37;94870.56;;;8.28;84.18
6136;BME280;24008;42.664;23.372;2022-11-15T12:46:13;94858.91;;;8.46;83.48
6136;BME280;24008;42.664;23.372;2022-11-15T12:48:51;94855.03;;;8.42;82.83
6136;BME280;24008;42.664;23.372;2022-11-15T12:55:01;94852.19;;;8.24;83.30
6136;BME280;24008;42.664;23.372;2022-11-15T12:57:36;94855.91;;;8.32;83.74
6136;BME280;24008;42.664;23.372;2022-11-15T13:03:26;94852.47;;;8.42;83.39
6136;BME280;24008;42.664;23.372;2022-11-15T13:06:06;94778.47;;;8.02;83.17
6136;BME280;24008;42.664;23.372;2022-11-15T13:08:49;94838.69;;;8.45;83.06
6136;BME280;24008;42.664;23.372;2022-11-15T13:11:45;94843.53;;;8.48;83.07
6136;BME280;24008;42.664;23.372;2022-11-15T13:17:28;94840.50;;;8.54;82.81
6136;BME280;24008;42.664;23.372;2022-11-15T13:20:01;94832.19;;;8.61;82.62
6136;BME280;24008;42.664;23.372;2022-11-15T13:22:38;94765.63;;;8.24;82.70
6136;BME280;24008;42.664;23.372;2022-11-15T13:25:48;94820.31;;;8.72;82.79
6136;BME280;24008;42.664;23.372;2022-11-15T13:28:22;94820.63;;;8.78;81.73
6136;BME280;24008;42.664;23.372;2022-11-15T13:30:53;94788.66;;;8.64;81.86
6136;BME280;24008;42.664;23.372;2022-11-15T13:33:22;94814.47;;;8.81;81.68
6136;BME280;24008;42.664;23.372;2022-11-15T13:35:51;94816.88;;;8.82;81.61
6136;BME280;24008;42.664;23.372;2022-11-15T13:38:26;94810.19;;;8.81;81.75
6136;BME280;24008;42.664;23.372;2022-11-15T13:40:56;94770.22;;;8.51;81.97